Observation data for Silverton on 02/11/2018      Previous  Date  Next       Current Mesonet Observations  Soil Data  Daily Summary Page  Observations in Plain Language
KSVS 110600Z 36007KT M09/M14 A3004 RMK A01 T10941140  RH  070%=      5-min Rain = 0
KSVS 110605Z 00009KT M09/M14 A3004 RMK A01 T10921139  RH  070%=      5-min Rain = 0
KSVS 110610Z 36008KT M09/M14 A3004 RMK A01 T10921140  RH  069%=      5-min Rain = 0
KSVS 110615Z 36009G14KT M09/M14 A3004 RMK A01 T10921140  RH  069%=      5-min Rain = 0
KSVS 110620Z 35010KT M09/M14 A3004 RMK A01 T10911140  RH  069%=      5-min Rain = 0
KSVS 110625Z 35011KT M09/M14 A3004 RMK A01 T10921141  RH  069%=      5-min Rain = 0
KSVS 110630Z 35011KT M09/M14 A3004 RMK A01 T10921141  RH  069%=      5-min Rain = 0
KSVS 110635Z 34012KT M09/M14 A3004 RMK A01 T10921141  RH  069%=      5-min Rain = 0
KSVS 110640Z 34012KT M09/M14 A3004 RMK A01 T10921141  RH  069%=      5-min Rain = 0
KSVS 110645Z 35014G19KT M09/M14 A3003 RMK A01 T10921141  RH  068%=      5-min Rain = 0
KSVS 110650Z 34013KT M09/M14 A3003 RMK A01 T10921141  RH  069%=      5-min Rain = 0
KSVS 110655Z 34014KT M09/M14 A3004 RMK A01 T10921142  RH  068%=      5-min Rain = 0
KSVS 110700Z 34014KT M09/M14 A3003 RMK A01 T10931142  RH  069%=      5-min Rain = 0
KSVS 110705Z 35014G19KT M09/M14 A3003 RMK A01 T10931142  RH  069%=      5-min Rain = 0
KSVS 110710Z 34014G19KT M09/M14 A3003 RMK A01 T10931142  RH  069%=      5-min Rain = 0
KSVS 110715Z 34013KT M09/M14 A3003 RMK A01 T10931142  RH  069%=      5-min Rain = 0
KSVS 110720Z 34013KT M09/M14 A3003 RMK A01 T10941142  RH  069%=      5-min Rain = 0
KSVS 110725Z 34012G17KT M10/M14 A3004 RMK A01 T10951142  RH  069%=      5-min Rain = 0
KSVS 110730Z 35015KT M09/M14 A3004 RMK A01 T10931142  RH  069%=      5-min Rain = 0
KSVS 110735Z 34013G18KT M09/M14 A3004 RMK A01 T10931142  RH  069%=      5-min Rain = 0
KSVS 110740Z 35013G18KT M09/M14 A3003 RMK A01 T10941142  RH  069%=      5-min Rain = 0
KSVS 110745Z 35013KT M09/M14 A3003 RMK A01 T10941142  RH  069%=      5-min Rain = 0
KSVS 110750Z 35012G17KT M09/M14 A3003 RMK A01 T10941142  RH  069%=      5-min Rain = 0
KSVS 110755Z 35013G18KT M09/M14 A3004 RMK A01 T10931142  RH  069%=      5-min Rain = 0
KSVS 110800Z 35013G18KT M09/M14 A3004 RMK A01 T10931141  RH  069%=      5-min Rain = 0
KSVS 110805Z 35012G17KT M09/M14 A3004 RMK A01 T10931142  RH  069%=      5-min Rain = 0
KSVS 110810Z 35013G18KT M09/M14 A3004 RMK A01 T10921141  RH  069%=      5-min Rain = 0
KSVS 110815Z 35013KT M09/M14 A3004 RMK A01 T10921141  RH  069%=      5-min Rain = 0
KSVS 110820Z 35013G18KT M09/M14 A3004 RMK A01 T10911140  RH  069%=      5-min Rain = 0
KSVS 110825Z 34014KT M09/M14 A3004 RMK A01 T10911140  RH  068%=      5-min Rain = 0
KSVS 110830Z 34012KT M09/M14 A3004 RMK A01 T10911140  RH  068%=      5-min Rain = 0
KSVS 110835Z 34012KT M09/M14 A3005 RMK A01 T10911141  RH  068%=      5-min Rain = 0
KSVS 110840Z 34011G16KT M09/M14 A3006 RMK A01 T10921141  RH  068%=      5-min Rain = 0
KSVS 110845Z 34013G18KT M09/M14 A3005 RMK A01 T10931142  RH  069%=      5-min Rain = 0
KSVS 110850Z 34012KT M09/M14 A3006 RMK A01 T10931142  RH  069%=      5-min Rain = 0
KSVS 110855Z 34012KT M09/M14 A3006 RMK A01 T10941142  RH  069%=      5-min Rain = 0
KSVS 110900Z 34011G16KT M10/M14 A3006 RMK A01 T10951142  RH  070%=      5-min Rain = 0
KSVS 110905Z 34012KT M10/M14 A3007 RMK A01 T10951142  RH  070%=      5-min Rain = 0
KSVS 110910Z 34011KT M10/M14 A3007 RMK A01 T10951142  RH  070%=      5-min Rain = 0
KSVS 110915Z 34012KT M10/M14 A3006 RMK A01 T10961142  RH  070%=      5-min Rain = 0
KSVS 110920Z 34012KT M10/M14 A3006 RMK A01 T10961142  RH  070%=      5-min Rain = 0
KSVS 110925Z 34012KT M10/M14 A3006 RMK A01 T10971142  RH  071%=      5-min Rain = 0
KSVS 110930Z 34012G17KT M10/M14 A3006 RMK A01 T10971142  RH  071%=      5-min Rain = 0
KSVS 110935Z 34013KT M10/M14 A3006 RMK A01 T10971141  RH  072%=      5-min Rain = 0
KSVS 110940Z 34010G15KT M10/M14 A3006 RMK A01 T10981142  RH  072%=      5-min Rain = 0
KSVS 110945Z 33010KT M10/M14 A3006 RMK A01 T11001142  RH  072%=      5-min Rain = 0
KSVS 110950Z 34010KT M10/M14 A3006 RMK A01 T11001142  RH  073%=      5-min Rain = 0
KSVS 110955Z 34010KT M10/M14 A3006 RMK A01 T11001142  RH  073%=      5-min Rain = 0
KSVS 111000Z 34011KT M10/M14 A3006 RMK A01 T11001141  RH  073%=      5-min Rain = 0
KSVS 111005Z 34009KT M10/M14 A3006 RMK A01 T11001141  RH  073%=      5-min Rain = 0
KSVS 111010Z 34009G14KT M10/M14 A3006 RMK A01 T11001141  RH  073%=      5-min Rain = 0
KSVS 111015Z 34009KT M10/M14 A3006 RMK A01 T10981139  RH  073%=      5-min Rain = 0
KSVS 111020Z 34009KT M10/M14 A3007 RMK A01 T10981139  RH  073%=      5-min Rain = 0
KSVS 111025Z 33009KT M10/M14 A3007 RMK A01 T10981140  RH  073%=      5-min Rain = 0
KSVS 111030Z 33010KT M10/M14 A3007 RMK A01 T10981139  RH  073%=      5-min Rain = 0
KSVS 111035Z 33011KT M10/M14 A3007 RMK A01 T10981139  RH  073%=      5-min Rain = 0
KSVS 111040Z 33011KT M10/M14 A3007 RMK A01 T10971139  RH  073%=      5-min Rain = 0
KSVS 111045Z 33011KT M10/M14 A3008 RMK A01 T10971138  RH  073%=      5-min Rain = 0
KSVS 111050Z 33011KT M10/M14 A3008 RMK A01 T10951138  RH  072%=      5-min Rain = 0
KSVS 111055Z 33012KT M09/M14 A3007 RMK A01 T10941138  RH  071%=      5-min Rain = 0
KSVS 111100Z 33010KT M09/M14 A3008 RMK A01 T10941138  RH  071%=      5-min Rain = 0
KSVS 111105Z 33010KT M09/M14 A3008 RMK A01 T10941139  RH  071%=      5-min Rain = 0
KSVS 111110Z 33011KT M09/M14 A3008 RMK A01 T10941139  RH  071%=      5-min Rain = 0
KSVS 111115Z 33012G17KT M09/M14 A3008 RMK A01 T10941139  RH  071%=      5-min Rain = 0
KSVS 111120Z 33011KT M09/M14 A3009 RMK A01 T10931139  RH  071%=      5-min Rain = 0
KSVS 111125Z 33013KT M09/M14 A3009 RMK A01 T10931138  RH  070%=      5-min Rain = 0
KSVS 111130Z 33012G17KT M09/M14 A3008 RMK A01 T10911138  RH  070%=      5-min Rain = 0
KSVS 111135Z 33013KT M09/M14 A3008 RMK A01 T10901138  RH  069%=      5-min Rain = 0
KSVS 111140Z 33012KT M09/M14 A3009 RMK A01 T10891138  RH  068%=      5-min Rain = 0
KSVS 111145Z 34012KT M09/M14 A3009 RMK A01 T10881139  RH  068%=      5-min Rain = 0
KSVS 111150Z 34012G17KT M09/M14 A3009 RMK A01 T10871139  RH  067%=      5-min Rain = 0
KSVS 111155Z 34013KT M09/M14 A3009 RMK A01 T10861140  RH  066%=      5-min Rain = 0
KSVS 111200Z 34014G19KT M09/M14 A3009 RMK A01 T10861140  RH  066%=      5-min Rain = 0
KSVS 111205Z 34014KT M09/M14 A3009 RMK A01 T10861140  RH  066%=      5-min Rain = 0
KSVS 111210Z 34013KT M09/M14 A301 RMK A01 T10861140  RH  066%=      5-min Rain = 0
KSVS 111215Z 34012G17KT M09/M14 A301 RMK A01 T10861140  RH  066%=      5-min Rain = 0
KSVS 111220Z 34013G18KT M09/M14 A301 RMK A01 T10851140  RH  065%=      5-min Rain = 0
KSVS 111225Z 33013KT M09/M14 A301 RMK A01 T10851140  RH  066%=      5-min Rain = 0
KSVS 111230Z 33011KT M09/M14 A3011 RMK A01 T10851140  RH  066%=      5-min Rain = 0
KSVS 111235Z 33011KT M09/M14 A301 RMK A01 T10861140  RH  066%=      5-min Rain = 0
KSVS 111240Z 33012KT M09/M14 A3011 RMK A01 T10851140  RH  065%=      5-min Rain = 0
KSVS 111245Z 33012KT M09/M14 A3011 RMK A01 T10851141  RH  065%=      5-min Rain = 0
KSVS 111250Z 33012G17KT M09/M14 A3012 RMK A01 T10851141  RH  065%=      5-min Rain = 0
KSVS 111255Z 33011KT M09/M14 A3012 RMK A01 T10851141  RH  065%=      5-min Rain = 0
KSVS 111300Z 33011KT M09/M14 A3012 RMK A01 T10851141  RH  065%=      5-min Rain = 0
KSVS 111305Z 33013G18KT M09/M14 A3012 RMK A01 T10851140  RH  065%=      5-min Rain = 0
KSVS 111310Z 33013KT M08/M14 A3012 RMK A01 T10841140  RH  065%=      5-min Rain = 0
KSVS 111315Z 33012G17KT M08/M14 A3013 RMK A01 T10841140  RH  065%=      5-min Rain = 0
KSVS 111320Z 33013KT M08/M14 A3013 RMK A01 T10841140  RH  065%=      5-min Rain = 0
KSVS 111325Z 33012G17KT M08/M14 A3013 RMK A01 T10841139  RH  065%=      5-min Rain = 0
KSVS 111330Z 33012KT M08/M14 A3013 RMK A01 T10831139  RH  065%=      5-min Rain = 0
KSVS 111335Z 33012KT M08/M14 A3013 RMK A01 T10831138  RH  065%=      5-min Rain = 0
KSVS 111340Z 33012KT M08/M14 A3013 RMK A01 T10831138  RH  065%=      5-min Rain = 0
KSVS 111345Z 33013KT M08/M14 A3013 RMK A01 T10821138  RH  065%=      5-min Rain = 0
KSVS 111350Z 33012KT M08/M14 A3014 RMK A01 T10821138  RH  065%=      5-min Rain = 0
KSVS 111355Z 33010G15KT M08/M14 A3014 RMK A01 T10811137  RH  065%=      5-min Rain = 0
KSVS 111400Z 33011G16KT M08/M14 A3014 RMK A01 T10791135  RH  065%=      5-min Rain = 0
KSVS 111405Z 33012KT M08/M13 A3014 RMK A01 T10761134  RH  064%=      5-min Rain = 0
KSVS 111410Z 33011G16KT M08/M13 A3015 RMK A01 T10761134  RH  064%=      5-min Rain = 0
KSVS 111415Z 33013G18KT M07/M13 A3015 RMK A01 T10741133  RH  064%=      5-min Rain = 0
KSVS 111420Z 33012KT M07/M13 A3015 RMK A01 T10721132  RH  063%=      5-min Rain = 0
KSVS 111425Z 33011G16KT M07/M13 A3015 RMK A01 T10691131  RH  063%=      5-min Rain = 0
KSVS 111430Z 33012G17KT M07/M13 A3016 RMK A01 T10681130  RH  062%=      5-min Rain = 0
KSVS 111435Z 33011G16KT M07/M13 A3017 RMK A01 T10671130  RH  062%=      5-min Rain = 0
KSVS 111440Z 33012G17KT M07/M13 A3017 RMK A01 T10651129  RH  061%=      5-min Rain = 0
KSVS 111445Z 34010G16KT M06/M13 A3017 RMK A01 T10641128  RH  061%=      5-min Rain = 0
KSVS 111450Z 34012KT M06/M13 A3018 RMK A01 T10641128  RH  061%=      5-min Rain = 0
KSVS 111455Z 33012KT M06/M13 A3018 RMK A01 T10631127  RH  061%=      5-min Rain = 0
KSVS 111500Z 33012KT M06/M13 A3018 RMK A01 T10631127  RH  061%=      5-min Rain = 0
KSVS 111505Z 33012KT M06/M13 A3018 RMK A01 T10611126  RH  061%=      5-min Rain = 0
KSVS 111510Z 33011G16KT M06/M13 A3018 RMK A01 T10601126  RH  061%=      5-min Rain = 0
KSVS 111515Z 33012KT M06/M13 A3019 RMK A01 T10601126  RH  060%=      5-min Rain = 0
KSVS 111520Z 33010KT M06/M13 A3019 RMK A01 T10581126  RH  060%=      5-min Rain = 0
KSVS 111525Z 32011G16KT M06/M13 A3019 RMK A01 T10571126  RH  059%=      5-min Rain = 0
KSVS 111530Z 32011KT M06/M13 A3019 RMK A01 T10561125  RH  059%=      5-min Rain = 0
KSVS 111535Z 33012KT M06/M13 A3019 RMK A01 T10551125  RH  059%=      5-min Rain = 0
KSVS 111540Z 33012KT M06/M13 A3019 RMK A01 T10561125  RH  059%=      5-min Rain = 0
KSVS 111545Z 33012KT M05/M12 A3019 RMK A01 T10541124  RH  059%=      5-min Rain = 0
KSVS 111550Z 32010G15KT M05/M12 A3019 RMK A01 T10511123  RH  058%=      5-min Rain = 0
KSVS 111555Z 32011KT M05/M12 A3019 RMK A01 T10491123  RH  057%=      5-min Rain = 0
KSVS 111600Z 32011KT M05/M12 A3019 RMK A01 T10461122  RH  056%=      5-min Rain = 0
KSVS 111605Z 31010KT M04/M12 A302 RMK A01 T10431122  RH  055%=      5-min Rain = 0
KSVS 111610Z 31011KT M04/M12 A302 RMK A01 T10421124  RH  054%=      5-min Rain = 0
KSVS 111615Z 32011KT M04/M12 A302 RMK A01 T10401123  RH  053%=      5-min Rain = 0
KSVS 111620Z 33012KT M04/M12 A302 RMK A01 T10371123  RH  052%=      5-min Rain = 0
KSVS 111625Z 32009KT M03/M12 A302 RMK A01 T10331121  RH  051%=      5-min Rain = 0
KSVS 111630Z 32012G18KT M03/M12 A302 RMK A01 T10311123  RH  050%=      5-min Rain = 0
KSVS 111635Z 32012KT M03/M12 A3021 RMK A01 T10311123  RH  050%=      5-min Rain = 0
KSVS 111640Z 32012KT M03/M12 A302 RMK A01 T10281122  RH  049%=      5-min Rain = 0
KSVS 111645Z 32012KT M03/M12 A302 RMK A01 T10281124  RH  048%=      5-min Rain = 0
KSVS 111650Z 31013KT M02/M12 A302 RMK A01 T10221122  RH  047%=      5-min Rain = 0
KSVS 111655Z 32012KT M02/M12 A302 RMK A01 T10191122  RH  046%=      5-min Rain = 0
KSVS 111700Z 33013KT M02/M13 A3021 RMK A01 T10211125  RH  046%=      5-min Rain = 0
KSVS 111705Z 32011KT M02/M13 A3021 RMK A01 T10211125  RH  046%=      5-min Rain = 0
KSVS 111710Z 32012KT M02/M12 A3021 RMK A01 T10181122  RH  046%=      5-min Rain = 0
KSVS 111715Z 33012G17KT M02/M12 A302 RMK A01 T10151122  RH  044%=      5-min Rain = 0
KSVS 111720Z 33013KT M01/M12 A302 RMK A01 T10141123  RH  044%=      5-min Rain = 0
KSVS 111725Z 33012KT M01/M12 A3021 RMK A01 T10131122  RH  044%=      5-min Rain = 0
KSVS 111730Z 32010G15KT M01/M12 A3021 RMK A01 T10061120  RH  043%=      5-min Rain = 0
KSVS 111735Z 33011KT M01/M12 A3021 RMK A01 T10071121  RH  042%=      5-min Rain = 0
KSVS 111740Z 32012KT M01/M12 A3021 RMK A01 T10051120  RH  042%=      5-min Rain = 0
KSVS 111745Z 33013KT M00/M12 A3021 RMK A01 T10031120  RH  041%=      5-min Rain = 0
KSVS 111750Z 34009KT M00/M12 A302 RMK A01 T10041120  RH  042%=      5-min Rain = 0
KSVS 111755Z 33008G13KT 00/12 A3019 RMK A01 T00-00-119  RH  041%=      5-min Rain = 0
KSVS 111800Z 33010KT 01/M12 A3019 RMK A01 T00061118  RH  040%=      5-min Rain = 0
KSVS 111805Z 33010KT 01/M12 A3019 RMK A01 T00121119  RH  038%=      5-min Rain = 0
KSVS 111810Z 33009G15KT 01/M12 A3019 RMK A01 T00121119  RH  037%=      5-min Rain = 0
KSVS 111815Z 34010KT 02/M12 A3019 RMK A01 T00151120  RH  036%=      5-min Rain = 0
KSVS 111820Z 33011KT 02/M12 A3018 RMK A01 T00171121  RH  036%=      5-min Rain = 0
KSVS 111825Z 35009G15KT 02/M12 A3018 RMK A01 T00181124  RH  035%=      5-min Rain = 0
KSVS 111830Z 33008KT 02/M12 A3018 RMK A01 T00161123  RH  035%=      5-min Rain = 0
KSVS 111835Z 36008KT 02/M12 A3018 RMK A01 T00221122  RH  034%=      5-min Rain = 0
KSVS 111840Z 35008G13KT 03/M12 A3018 RMK A01 T00251121  RH  034%=      5-min Rain = 0
KSVS 111845Z 01010G15KT 03/M12 A3017 RMK A01 T00281124  RH  032%=      5-min Rain = 0
KSVS 111850Z 00006G14KT 03/M12 A3017 RMK A01 T00311123  RH  032%=      5-min Rain = 0
KSVS 111855Z 35006KT 03/M12 A3017 RMK A01 T00281123  RH  032%=      5-min Rain = 0
KSVS 111900Z 00005G11KT 03/M13 A3016 RMK A01 T00301125  RH  031%=      5-min Rain = 0
KSVS 111905Z 00005G10KT 03/M12 A3016 RMK A01 T00311124  RH  031%=      5-min Rain = 0
KSVS 111910Z 02007G13KT 04/M13 A3016 RMK A01 T00361127  RH  030%=      5-min Rain = 0
KSVS 111915Z 36008KT 03/M13 A3016 RMK A01 T00341128  RH  030%=      5-min Rain = 0
KSVS 111920Z 34008KT 04/M13 A3015 RMK A01 T00411127  RH  029%=      5-min Rain = 0
KSVS 111925Z 34009G14KT 04/M13 A3015 RMK A01 T00441131  RH  027%=      5-min Rain = 0
KSVS 111930Z 35007G12KT 05/M13 A3015 RMK A01 T00451133  RH  027%=      5-min Rain = 0
KSVS 111935Z 35008G15KT 04/M14 A3015 RMK A01 T00441136  RH  026%=      5-min Rain = 0
KSVS 111940Z 34010G15KT 05/M13 A3014 RMK A01 T00501133  RH  026%=      5-min Rain = 0
KSVS 111945Z 01008G13KT 05/M14 A3014 RMK A01 T00491135  RH  025%=      5-min Rain = 0
KSVS 111950Z 35007KT 05/M14 A3014 RMK A01 T00471137  RH  025%=      5-min Rain = 0
KSVS 111955Z 35006KT 05/M14 A3013 RMK A01 T00481136  RH  025%=      5-min Rain = 0
KSVS 112000Z 35007KT 05/M14 A3013 RMK A01 T00491138  RH  025%=      5-min Rain = 0
KSVS 112005Z 34007KT 05/M14 A3013 RMK A01 T00491140  RH  024%=      5-min Rain = 0
KSVS 112010Z 34006G11KT 05/M14 A3012 RMK A01 T00521138  RH  024%=      5-min Rain = 0
KSVS 112015Z 03005KT 05/M14 A3012 RMK A01 T00541137  RH  024%=      5-min Rain = 0
KSVS 112020Z 05006KT 06/M13 A3012 RMK A01 T00561134  RH  024%=      5-min Rain = 0
KSVS 112025Z 02007KT 06/M14 A3012 RMK A01 T00571140  RH  023%=      5-min Rain = 0
KSVS 112030Z 02005KT 06/M14 A3012 RMK A01 T00571140  RH  023%=      5-min Rain = 0
KSVS 112035Z 01005G14KT 06/M14 A3011 RMK A01 T00571143  RH  023%=      5-min Rain = 0
KSVS 112040Z 05007KT 06/M15 A3011 RMK A01 T00581147  RH  022%=      5-min Rain = 0
KSVS 112045Z 03006KT 06/M15 A3011 RMK A01 T00551148  RH  022%=      5-min Rain = 0
KSVS 112050Z 01005KT 06/M15 A3011 RMK A01 T00561148  RH  022%=      5-min Rain = 0
KSVS 112055Z 05006KT 06/M15 A3011 RMK A01 T00611147  RH  021%=      5-min Rain = 0
KSVS 112100Z 06005KT 06/M15 A3011 RMK A01 T00581145  RH  022%=      5-min Rain = 0
KSVS 112105Z 35003G8KT 06/M15 A3011 RMK A01 T00591146  RH  022%=      5-min Rain = 0
KSVS 112110Z 01008G14KT 06/M15 A3011 RMK A01 T00601149  RH  021%=      5-min Rain = 0
KSVS 112115Z 05006KT 06/M15 A3011 RMK A01 T00591149  RH  021%=      5-min Rain = 0
KSVS 112120Z 07003KT 06/M15 A3011 RMK A01 T00591150  RH  021%=      5-min Rain = 0
KSVS 112125Z 11001KT 06/M15 A3011 RMK A01 T00611149  RH  021%=      5-min Rain = 0
KSVS 112130Z 01005KT 07/M15 A3011 RMK A01 T00651150  RH  020%=      5-min Rain = 0
KSVS 112135Z 05006KT 06/M15 A3011 RMK A01 T00641151  RH  020%=      5-min Rain = 0
KSVS 112140Z 04005KT 06/M15 A3011 RMK A01 T00631150  RH  020%=      5-min Rain = 0
KSVS 112145Z 05004KT 06/M15 A3011 RMK A01 T00631151  RH  020%=      5-min Rain = 0
KSVS 112150Z 05003G8KT 06/M15 A3011 RMK A01 T00621151  RH  020%=      5-min Rain = 0
KSVS 112155Z 04004KT 07/M15 A3011 RMK A01 T00661152  RH  020%=      5-min Rain = 0
KSVS 112200Z 04004KT 07/M15 A3012 RMK A01 T00651152  RH  020%=      5-min Rain = 0
KSVS 112205Z 06005G10KT 07/M15 A3012 RMK A01 T00651151  RH  020%=      5-min Rain = 0
KSVS 112210Z 08006KT 06/M15 A3012 RMK A01 T00641151  RH  020%=      5-min Rain = 0
KSVS 112215Z 09007KT 07/M15 A3012 RMK A01 T00681151  RH  020%=      5-min Rain = 0
KSVS 112220Z 11005KT 06/M15 A3012 RMK A01 T00621152  RH  020%=      5-min Rain = 0
KSVS 112225Z 06002KT 07/M15 A3012 RMK A01 T00671151  RH  020%=      5-min Rain = 0
KSVS 112230Z 05004KT 07/M15 A3012 RMK A01 T00671152  RH  020%=      5-min Rain = 0
KSVS 112235Z 06007KT 07/M15 A3013 RMK A01 T00651152  RH  020%=      5-min Rain = 0
KSVS 112240Z 05004G9KT 07/M15 A3013 RMK A01 T00671151  RH  020%=      5-min Rain = 0
KSVS 112245Z 05005KT 07/M15 A3013 RMK A01 T00651152  RH  020%=      5-min Rain = 0
KSVS 112250Z 04006KT 07/M15 A3013 RMK A01 T00661152  RH  020%=      5-min Rain = 0
KSVS 112255Z 07003KT 06/M15 A3013 RMK A01 T00641152  RH  020%=      5-min Rain = 0
KSVS 112300Z 05003KT 07/M15 A3013 RMK A01 T00651153  RH  020%=      5-min Rain = 0
KSVS 112305Z 03003KT 06/M15 A3013 RMK A01 T00641153  RH  020%=      5-min Rain = 0
KSVS 112310Z 04002KT 07/M15 A3013 RMK A01 T00651154  RH  020%=      5-min Rain = 0
KSVS 112315Z 07001KT 07/M16 A3013 RMK A01 T00651155  RH  019%=      5-min Rain = 0
KSVS 112320Z 12002KT 07/M16 A3013 RMK A01 T00671156  RH  019%=      5-min Rain = 0
KSVS 112325Z 11002KT 07/M16 A3014 RMK A01 T00651157  RH  019%=      5-min Rain = 0
KSVS 112330Z 14002KT 07/M16 A3014 RMK A01 T00651157  RH  019%=      5-min Rain = 0
KSVS 112335Z 16002KT 07/M16 A3014 RMK A01 T00651157  RH  019%=      5-min Rain = 0
KSVS 112340Z 17002KT 07/M16 A3014 RMK A01 T00661158  RH  019%=      5-min Rain = 0
KSVS 112345Z 11002KT 06/M16 A3014 RMK A01 T00611159  RH  019%=      5-min Rain = 0
KSVS 112350Z 10003KT 06/M16 A3014 RMK A01 T00561159  RH  020%=      5-min Rain = 0
KSVS 112355Z 11005KT 05/M16 A3014 RMK A01 T00481158  RH  021%=      5-min Rain = 0
KSVS 120000Z 11006KT 04/M16 A3014 RMK A01 T00411155  RH  023%=      5-min Rain = 0
KSVS 120005Z 11007KT 04/M16 A3014 RMK A01 T00371155  RH  023%=      5-min Rain = 0
KSVS 120010Z 10006KT 03/M16 A3014 RMK A01 T00311157  RH  024%=      5-min Rain = 0
KSVS 120015Z 11006KT 03/M16 A3015 RMK A01 T00251159  RH  025%=      5-min Rain = 0
KSVS 120020Z 12005KT 02/M16 A3015 RMK A01 T00191158  RH  026%=      5-min Rain = 0
KSVS 120025Z 11006KT 02/M16 A3015 RMK A01 T00151159  RH  027%=      5-min Rain = 0
KSVS 120030Z 11007KT 01/M16 A3015 RMK A01 T00081161  RH  027%=      5-min Rain = 0
KSVS 120035Z 11007KT 00/M16 A3015 RMK A01 T00011163  RH  028%=      5-min Rain = 0
KSVS 120040Z 14006KT M01/M17 A3015 RMK A01 T10081165  RH  030%=      5-min Rain = 0
KSVS 120045Z 14007KT M01/M17 A3016 RMK A01 T10131166  RH  031%=      5-min Rain = 0
KSVS 120050Z 14007KT M01/M17 A3016 RMK A01 T10111166  RH  030%=      5-min Rain = 0
KSVS 120055Z 14007KT M01/M17 A3016 RMK A01 T10091167  RH  030%=      5-min Rain = 0
KSVS 120100Z 14007KT M01/M17 A3016 RMK A01 T10111166  RH  030%=      5-min Rain = 0
KSVS 120105Z 15006KT M02/M16 A3016 RMK A01 T10161164  RH  032%=      5-min Rain = 0
KSVS 120110Z 15007KT M02/M17 A3017 RMK A01 T10201165  RH  032%=      5-min Rain = 0
KSVS 120115Z 14006KT M03/M17 A3017 RMK A01 T10251166  RH  034%=      5-min Rain = 0
KSVS 120120Z 14007KT M03/M16 A3017 RMK A01 T10281164  RH  035%=      5-min Rain = 0
KSVS 120125Z 14007KT M03/M17 A3017 RMK A01 T10301165  RH  035%=      5-min Rain = 0
KSVS 120130Z 14007KT M03/M17 A3018 RMK A01 T10271165  RH  034%=      5-min Rain = 0
KSVS 120135Z 14008KT M03/M16 A3018 RMK A01 T10261164  RH  034%=      5-min Rain = 0
KSVS 120140Z 14008KT M03/M16 A3018 RMK A01 T10271161  RH  035%=      5-min Rain = 0
KSVS 120145Z 15007KT M03/M16 A3018 RMK A01 T10301163  RH  036%=      5-min Rain = 0
KSVS 120150Z 13006KT M03/M16 A3018 RMK A01 T10331160  RH  037%=      5-min Rain = 0
KSVS 120155Z 13007KT M03/M16 A3018 RMK A01 T10261160  RH  036%=      5-min Rain = 0
KSVS 120200Z 14006KT M03/M16 A3018 RMK A01 T10261159  RH  036%=      5-min Rain = 0
KSVS 120205Z 14007KT M03/M16 A3019 RMK A01 T10271158  RH  036%=      5-min Rain = 0
KSVS 120210Z 13006KT M03/M16 A3019 RMK A01 T10301159  RH  037%=      5-min Rain = 0
KSVS 120215Z 13006KT M03/M16 A3019 RMK A01 T10311159  RH  037%=      5-min Rain = 0
KSVS 120220Z 14007KT M03/M16 A3019 RMK A01 T10291159  RH  037%=      5-min Rain = 0
KSVS 120225Z 15007KT M03/M16 A3019 RMK A01 T10301160  RH  037%=      5-min Rain = 0
KSVS 120230Z 14007KT M03/M16 A302 RMK A01 T10331159  RH  038%=      5-min Rain = 0
KSVS 120235Z 12006KT M04/M16 A302 RMK A01 T10361160  RH  038%=      5-min Rain = 0
KSVS 120240Z 14006KT M04/M16 A302 RMK A01 T10351157  RH  039%=      5-min Rain = 0
KSVS 120245Z 13005KT M03/M15 A302 RMK A01 T10331154  RH  039%=      5-min Rain = 0
KSVS 120250Z 13006KT M03/M15 A302 RMK A01 T10321152  RH  040%=      5-min Rain = 0
KSVS 120255Z 13006KT M04/M15 A3021 RMK A01 T10351152  RH  040%=      5-min Rain = 0
KSVS 120300Z 15005KT M04/M15 A3021 RMK A01 T10361151  RH  041%=      5-min Rain = 0
KSVS 120305Z 15004KT M03/M15 A3021 RMK A01 T10321149  RH  041%=      5-min Rain = 0
KSVS 120310Z 13004KT M03/M15 A3021 RMK A01 T10331151  RH  040%=      5-min Rain = 0
KSVS 120315Z 13004KT M03/M15 A3021 RMK A01 T10341151  RH  041%=      5-min Rain = 0
KSVS 120320Z 13004KT M03/M15 A3021 RMK A01 T10311149  RH  040%=      5-min Rain = 0
KSVS 120325Z 12005KT M03/M15 A3021 RMK A01 T10321150  RH  040%=      5-min Rain = 0
KSVS 120330Z 13005KT M03/M15 A3022 RMK A01 T10311150  RH  040%=      5-min Rain = 0
KSVS 120335Z 13005KT M03/M15 A3022 RMK A01 T10311150  RH  040%=      5-min Rain = 0
KSVS 120340Z 13004KT M03/M15 A3022 RMK A01 T10331150  RH  041%=      5-min Rain = 0
KSVS 120345Z 13004KT M04/M15 A3022 RMK A01 T10361150  RH  042%=      5-min Rain = 0
KSVS 120350Z 11003KT M04/M16 A3022 RMK A01 T10391155  RH  041%=      5-min Rain = 0
KSVS 120355Z 12003KT M04/M16 A3022 RMK A01 T10401157  RH  041%=      5-min Rain = 0
KSVS 120400Z 12004KT M04/M16 A3022 RMK A01 T10381155  RH  041%=      5-min Rain = 0
KSVS 120405Z 12004KT M04/M16 A3022 RMK A01 T10391155  RH  040%=      5-min Rain = 0
KSVS 120410Z 12005KT M04/M16 A3022 RMK A01 T10401157  RH  040%=      5-min Rain = 0
KSVS 120415Z 12005KT M05/M16 A3022 RMK A01 T10501162  RH  042%=      5-min Rain = 0
KSVS 120420Z 14005KT M05/M15 A3022 RMK A01 T10451152  RH  044%=      5-min Rain = 0
KSVS 120425Z 14004KT M05/M15 A3021 RMK A01 T10451153  RH  043%=      5-min Rain = 0
KSVS 120430Z 14004KT M06/M16 A3021 RMK A01 T10591159  RH  046%=      5-min Rain = 0
KSVS 120435Z 11003KT M06/M16 A3021 RMK A01 T10601156  RH  047%=      5-min Rain = 0
KSVS 120440Z 11004KT M06/M16 A3021 RMK A01 T10611159  RH  047%=      5-min Rain = 0
KSVS 120445Z 13004KT M06/M16 A3022 RMK A01 T10631161  RH  046%=      5-min Rain = 0
KSVS 120450Z 16003KT M06/M15 A3022 RMK A01 T10581154  RH  047%=      5-min Rain = 0
KSVS 120455Z 16004KT M05/M15 A3022 RMK A01 T10541153  RH  046%=      5-min Rain = 0
KSVS 120500Z 14005KT M05/M15 A3022 RMK A01 T10521152  RH  046%=      5-min Rain = 0
KSVS 120505Z 17003KT M05/M15 A3022 RMK A01 T10491149  RH  046%=      5-min Rain = 0
KSVS 120510Z 19003KT M05/M15 A3022 RMK A01 T10451149  RH  045%=      5-min Rain = 0
KSVS 120515Z 19003KT M05/M15 A3022 RMK A01 T10451150  RH  044%=      5-min Rain = 0
KSVS 120520Z 19003KT M05/M15 A3022 RMK A01 T10461151  RH  044%=      5-min Rain = 0
KSVS 120525Z 18002KT M05/M16 A3023 RMK A01 T10511155  RH  045%=      5-min Rain = 0
KSVS 120530Z 15002KT M05/M15 A3022 RMK A01 T10521152  RH  046%=      5-min Rain = 0
KSVS 120535Z 16002KT M05/M15 A3023 RMK A01 T10511150  RH  046%=      5-min Rain = 0
KSVS 120540Z 19002KT M06/M16 A3023 RMK A01 T10561155  RH  047%=      5-min Rain = 0
KSVS 120545Z 18003KT M06/M15 A3023 RMK A01 T10591151  RH  049%=      5-min Rain = 0
KSVS 120550Z 18003KT M05/M15 A3023 RMK A01 T10541151  RH  047%=      5-min Rain = 0
KSVS 120555Z 20003KT M06/M15 A3024 RMK A01 T10561154  RH  047%=      5-min Rain = 0

Page generated in 0.0277 seconds.